Pagrindinis puslapis
METAR-TAF:

METAR-TAF

Oro uostai :

Kiurasao, Nyderlandų Antilai

platuma: 12-12N, ilguma: 068-58W, Aukštis: 9 m

Dabartinis oras

Ataskaita buvo paskelbta 51 minutes, ne 13:00 UTC
Vėjas 11 kt iš Rytų
Temperatūra 29°C
Drėgmė 66%
Slėgis 1015 hPa
Matomumas 10 km arba daugiau
Mažai debesys ne aukštis 1800 ft, aukštai iškilę kamuoliniai debesys.
Mažai debesys ne aukštis 2300 ft
Liūtis kaimynystėje

METAR: TNCC 071300Z 10011KT 9999 VCSH FEW018TCU FEW023 29/22 Q1015 NOSIG

Laikas: 09:51 (13:51 UTC)

Prognozė

Ataskaita buvo paskelbta 2 valandos ir 36 minutes, ne 11:15 UTC
Prognozė galioja nuo 07 metu 12 UTC su 08 metu 12 UTC
Vėjas 12 kt iš Rytų
Matomumas 10 km arba daugiau
Mažai debesys ne aukštis 2000 ft

TAF: TNCC 071115Z 0712/0812 09012KT 9999 FEW020

Orai ataskaitas ir orų prognozės (METAR, TAF).

turimą stotys yra geltonos ir raudonos taškus žemėlapyje.

Perkelti pele per norėdami pamatyti stoties vardą.

Tada spustelėkite, norėdami matyti oro stebėjimo ir prognozės.

Norėdami pakeisti žemėlapį: spustelėkite ant žalios mygtukų su juodo kryžiaus žemyn,; žalią mygtuką su brūkšneliu, jei norite nutolinti; arba žalių rodyklių gretimoms žemėlapius.


METAR-TAF: